Time;durP1;ratioP1;P1;durP2;ratioP2;P2;SDS_P1;SDS_P2;PMS_P1;PMS_P2;Temp;Humidity;BMP_temperature;BMP_pressure;BME280_temperature;BME280_humidity;BME280_pressure;Samples;Min_cycle;Max_cycle;Signal;HPM_P1;HPM_P2
2022/08/18 00:01:16;;;;;;;15.82;9.63;;;;;;;;;;5026116;28;20249;-71
2022/08/18 00:03:43;;;;;;;19.20;9.18;;;;;;;;;;5027404;28;20102;-70
2022/08/18 00:06:09;;;;;;;15.30;8.55;;;;;;;;;;5024170;28;20122;-71
2022/08/18 00:08:34;;;;;;;20.23;9.35;;;;;;;;;;5039724;28;20794;-72
2022/08/18 00:10:59;;;;;;;23.95;9.68;;;;;;;;;;5032424;28;20466;-72
2022/08/18 00:13:25;;;;;;;21.27;9.93;;;;;;;;;;5043631;28;20102;-72
2022/08/18 00:15:50;;;;;;;21.65;8.82;;;;;;;;;;5028374;28;20240;-71
2022/08/18 00:18:16;;;;;;;15.93;8.93;;;;;;;;;;5025235;28;20043;-72
2022/08/18 00:20:41;;;;;;;15.98;8.77;;;;;;;;;;5027810;28;20440;-72
2022/08/18 00:23:07;;;;;;;20.35;9.13;;;;;;;;;;5040665;28;20274;-72
2022/08/18 00:25:33;;;;;;;13.20;9.50;;;;;;;;;;5041055;28;20627;-70
2022/08/18 00:27:58;;;;;;;14.60;9.10;;;;;;;;;;5030316;28;20505;-71
2022/08/18 00:30:23;;;;;;;19.80;9.65;;;;;;;;;;5042166;28;20116;-71
2022/08/18 00:32:52;;;;;;;22.38;8.48;;;;;;;;;;5025872;28;20040;-71
2022/08/18 00:35:25;;;;;;;14.68;8.93;;;;;;;;;;5014184;28;20127;-71
2022/08/18 00:37:51;;;;;;;17.58;9.40;;;;;;;;;;5025970;28;20073;-71
2022/08/18 00:40:19;;;;;;;16.88;9.45;;;;;;;;;;5040741;28;20417;-71
2022/08/18 00:42:50;;;;;;;17.77;9.38;;;;;;;;;;5023052;28;20147;-72
2022/08/18 00:45:19;;;;;;;19.00;8.73;;;;;;;;;;5025952;28;20069;-71
2022/08/18 00:47:44;;;;;;;19.67;9.43;;;;;;;;;;5027608;28;20041;-71
2022/08/18 00:50:18;;;;;;;17.45;8.68;;;;;;;;;;5039657;28;20489;-71
2022/08/18 00:52:46;;;;;;;16.90;9.48;;;;;;;;;;5029230;28;20044;-71
2022/08/18 00:55:12;;;;;;;12.15;9.13;;;;;;;;;;5023060;28;20095;-72
2022/08/18 00:57:37;;;;;;;17.42;8.82;;;;;;;;;;5038812;28;20036;-72
2022/08/18 01:00:12;;;;;;;16.55;9.43;;;;;;;;;;5022911;28;20110;-72
2022/08/18 01:02:41;;;;;;;16.63;9.38;;;;;;;;;;5026439;28;20052;-70
2022/08/18 01:05:13;;;;;;;15.73;9.13;;;;;;;;;;5024777;28;20037;-71
2022/08/18 01:07:46;;;;;;;15.85;9.25;;;;;;;;;;5025352;28;20029;-73
2022/08/18 01:10:17;;;;;;;15.32;8.45;;;;;;;;;;5027449;28;20033;-72
2022/08/18 01:12:43;;;;;;;20.35;9.18;;;;;;;;;;5025335;28;20378;-71
2022/08/18 01:15:09;;;;;;;16.77;8.95;;;;;;;;;;5024948;28;20067;-71
2022/08/18 01:23:15;;;;;;;14.15;8.57;;;;;;;;;;5024558;28;20035;-71
2022/08/18 01:25:58;;;;;;;14.73;8.90;;;;;;;;;;5030048;28;20146;-71
2022/08/18 01:28:25;;;;;;;19.08;9.27;;;;;;;;;;5023644;28;20068;-72
2022/08/18 01:30:54;;;;;;;22.35;9.30;;;;;;;;;;5023990;28;20270;-72
2022/08/18 01:33:20;;;;;;;19.05;10.15;;;;;;;;;;5020389;28;20475;-71
2022/08/18 01:35:48;;;;;;;21.67;9.57;;;;;;;;;;5022555;28;20106;-71
2022/08/18 01:38:13;;;;;;;17.70;9.50;;;;;;;;;;5024102;28;20826;-71
2022/08/18 01:40:39;;;;;;;15.13;9.60;;;;;;;;;;5022877;28;20102;-71
2022/08/18 01:43:04;;;;;;;20.17;9.50;;;;;;;;;;5039992;28;20025;-71
2022/08/18 01:45:32;;;;;;;23.48;9.88;;;;;;;;;;5026237;28;20351;-70
2022/08/18 01:47:58;;;;;;;23.77;10.55;;;;;;;;;;5023859;28;20032;-71
2022/08/18 01:50:23;;;;;;;18.42;9.73;;;;;;;;;;5024479;28;20135;-71
2022/08/18 01:52:52;;;;;;;21.08;10.45;;;;;;;;;;5022833;28;20062;-72
2022/08/18 01:55:17;;;;;;;15.52;9.73;;;;;;;;;;5035723;28;20061;-72
2022/08/18 01:57:43;;;;;;;17.23;10.38;;;;;;;;;;5036666;28;20033;-72
2022/08/18 02:00:10;;;;;;;15.02;10.55;;;;;;;;;;5041730;28;20079;-71
2022/08/18 02:02:36;;;;;;;16.75;10.13;;;;;;;;;;5036474;28;20191;-72
2022/08/18 02:05:05;;;;;;;16.60;11.20;;;;;;;;;;5020438;28;20670;-72
2022/08/18 02:07:30;;;;;;;17.33;10.55;;;;;;;;;;5024513;28;20143;-71
2022/08/18 02:09:56;;;;;;;18.95;10.30;;;;;;;;;;5039187;28;20033;-72
2022/08/18 02:12:21;;;;;;;15.80;10.35;;;;;;;;;;5024505;28;20040;-71
2022/08/18 02:14:46;;;;;;;16.98;11.73;;;;;;;;;;5025783;28;20044;-72
2022/08/18 02:17:12;;;;;;;19.42;11.95;;;;;;;;;;5026296;28;20037;-72
2022/08/18 02:19:44;;;;;;;17.50;12.77;;;;;;;;;;5023913;28;20215;-72
2022/08/18 02:22:12;;;;;;;19.00;12.32;;;;;;;;;;5037780;28;20062;-72
2022/08/18 02:24:37;;;;;;;16.58;12.45;;;;;;;;;;5024623;28;20139;-71
2022/08/18 02:27:03;;;;;;;18.63;12.68;;;;;;;;;;5042125;28;20485;-72
2022/08/18 02:29:28;;;;;;;26.08;13.43;;;;;;;;;;5042518;28;21603;-72
2022/08/18 02:31:54;;;;;;;18.13;12.98;;;;;;;;;;5041855;28;20559;-72
2022/08/18 02:34:19;;;;;;;21.02;12.38;;;;;;;;;;5027222;28;20646;-71
2022/08/18 02:36:44;;;;;;;16.92;12.35;;;;;;;;;;5030984;28;20035;-71
2022/08/18 02:39:10;;;;;;;18.25;12.73;;;;;;;;;;5025828;28;20721;-72
2022/08/18 02:41:35;;;;;;;17.67;10.90;;;;;;;;;;5027551;28;20303;-71
2022/08/18 02:44:01;;;;;;;19.92;11.27;;;;;;;;;;5030060;28;20029;-72
2022/08/18 02:46:27;;;;;;;13.18;10.77;;;;;;;;;;5026441;28;20043;-72
2022/08/18 02:48:53;;;;;;;20.33;11.70;;;;;;;;;;5029036;28;20029;-72
2022/08/18 02:51:18;;;;;;;17.33;11.77;;;;;;;;;;5035309;28;20036;-72
2022/08/18 02:53:44;;;;;;;22.17;12.63;;;;;;;;;;5033893;28;20045;-72
2022/08/18 02:56:28;;;;;;;23.92;12.13;;;;;;;;;;5034672;28;20029;-71
2022/08/18 02:58:59;;;;;;;18.00;10.68;;;;;;;;;;5030160;28;20036;-71
2022/08/18 03:01:27;;;;;;;18.93;10.40;;;;;;;;;;5029905;28;20298;-71
2022/08/18 03:03:53;;;;;;;16.52;10.13;;;;;;;;;;5030132;28;20055;-71
2022/08/18 03:06:19;;;;;;;14.20;8.82;;;;;;;;;;5033084;28;20424;-71
2022/08/18 03:08:49;;;;;;;15.50;9.43;;;;;;;;;;5028942;28;20111;-71
2022/08/18 03:11:19;;;;;;;16.73;8.52;;;;;;;;;;5029859;28;20509;-71
2022/08/18 03:13:45;;;;;;;18.65;8.40;;;;;;;;;;5031420;28;20054;-71
2022/08/18 03:16:10;;;;;;;19.05;9.10;;;;;;;;;;5029735;28;20033;-71
2022/08/18 03:18:36;;;;;;;18.63;7.65;;;;;;;;;;5030151;28;20141;-71
2022/08/18 03:21:08;;;;;;;13.63;7.75;;;;;;;;;;5028658;28;20062;-71
2022/08/18 03:23:34;;;;;;;12.60;6.90;;;;;;;;;;5028281;28;20036;-72
2022/08/18 03:25:59;;;;;;;13.55;7.40;;;;;;;;;;5033657;28;20059;-72
2022/08/18 03:28:25;;;;;;;16.90;6.93;;;;;;;;;;5041102;28;20549;-72
2022/08/18 03:30:50;;;;;;;13.73;6.90;;;;;;;;;;5044082;28;21035;-72
2022/08/18 03:33:15;;;;;;;12.20;5.90;;;;;;;;;;5041812;28;20679;-72
2022/08/18 03:35:41;;;;;;;10.95;5.05;;;;;;;;;;5045610;28;20101;-72
2022/08/18 03:38:06;;;;;;;13.07;5.13;;;;;;;;;;5050695;28;20178;-72
2022/08/18 03:40:31;;;;;;;12.95;4.57;;;;;;;;;;5035599;28;20047;-72
2022/08/18 03:42:56;;;;;;;13.05;4.80;;;;;;;;;;5031086;28;20329;-72
2022/08/18 03:45:23;;;;;;;10.68;5.25;;;;;;;;;;5020408;28;20036;-72
2022/08/18 03:47:51;;;;;;;14.30;4.50;;;;;;;;;;5036151;28;20065;-72
2022/08/18 03:50:17;;;;;;;10.43;4.65;;;;;;;;;;5037385;28;20615;-72
2022/08/18 03:52:46;;;;;;;10.25;4.50;;;;;;;;;;5031042;28;20036;-70
2022/08/18 03:55:12;;;;;;;11.73;4.22;;;;;;;;;;5031035;28;20048;-70
2022/08/18 03:57:37;;;;;;;10.20;4.47;;;;;;;;;;5048620;28;20067;-71
2022/08/18 04:00:03;;;;;;;11.52;4.43;;;;;;;;;;5029450;28;20036;-72
2022/08/18 04:02:29;;;;;;;9.98;5.00;;;;;;;;;;5042491;28;20485;-72
2022/08/18 04:04:54;;;;;;;13.18;4.63;;;;;;;;;;5034677;28;20044;-70
2022/08/18 04:07:19;;;;;;;12.32;4.80;;;;;;;;;;5044372;28;20041;-71
2022/08/18 04:09:46;;;;;;;11.80;4.40;;;;;;;;;;5025850;28;20157;-71
2022/08/18 04:12:14;;;;;;;10.85;4.57;;;;;;;;;;5042599;28;20255;-71
2022/08/18 04:14:40;;;;;;;7.88;4.10;;;;;;;;;;5030182;28;20568;-71
2022/08/18 04:17:06;;;;;;;8.93;4.45;;;;;;;;;;5037820;28;20139;-71
2022/08/18 04:19:33;;;;;;;11.98;4.43;;;;;;;;;;5034319;28;20123;-71
2022/08/18 04:21:59;;;;;;;12.38;4.70;;;;;;;;;;5038000;28;20070;-71
2022/08/18 04:24:25;;;;;;;12.85;4.90;;;;;;;;;;5034134;28;20777;-71
2022/08/18 04:26:51;;;;;;;11.18;4.80;;;;;;;;;;5035279;28;20037;-70
2022/08/18 04:29:17;;;;;;;13.15;4.90;;;;;;;;;;5039080;28;20025;-70
2022/08/18 04:31:42;;;;;;;11.18;5.65;;;;;;;;;;5037708;28;20403;-71
2022/08/18 04:34:08;;;;;;;10.82;5.03;;;;;;;;;;5033654;28;20792;-71
2022/08/18 04:36:34;;;;;;;12.57;5.70;;;;;;;;;;5036509;28;20050;-71
2022/08/18 04:39:00;;;;;;;10.75;6.00;;;;;;;;;;5029420;28;20124;-71
2022/08/18 04:41:26;;;;;;;10.32;5.30;;;;;;;;;;5033350;28;20303;-71
2022/08/18 04:43:52;;;;;;;12.45;4.50;;;;;;;;;;5034699;28;20871;-71
2022/08/18 04:46:17;;;;;;;12.20;5.43;;;;;;;;;;5033262;28;20078;-71
2022/08/18 04:48:43;;;;;;;15.27;6.45;;;;;;;;;;5030620;28;20044;-71
2022/08/18 04:51:13;;;;;;;16.25;6.68;;;;;;;;;;5040857;28;20041;-71
2022/08/18 04:53:45;;;;;;;15.85;8.63;;;;;;;;;;5034011;28;20036;-71
2022/08/18 04:56:25;;;;;;;14.20;8.30;;;;;;;;;;5035165;28;20052;-71
2022/08/18 04:58:52;;;;;;;17.40;8.85;;;;;;;;;;5037466;28;20036;-71
2022/08/18 05:01:21;;;;;;;21.48;8.55;;;;;;;;;;5036642;28;20533;-71
2022/08/18 05:03:48;;;;;;;17.58;8.15;;;;;;;;;;5035629;28;20476;-71
2022/08/18 05:06:13;;;;;;;17.48;7.40;;;;;;;;;;5035623;28;20520;-71
2022/08/18 05:08:39;;;;;;;16.48;7.93;;;;;;;;;;5039514;28;20135;-73
2022/08/18 05:11:04;;;;;;;16.73;8.35;;;;;;;;;;5052426;28;20039;-71
2022/08/18 05:13:30;;;;;;;15.82;8.25;;;;;;;;;;5036837;28;20412;-71
2022/08/18 05:15:56;;;;;;;14.35;8.38;;;;;;;;;;5032972;28;20033;-71
2022/08/18 05:18:24;;;;;;;14.98;7.68;;;;;;;;;;5033575;28;20060;-71
2022/08/18 05:20:54;;;;;;;14.32;7.18;;;;;;;;;;5051084;28;20516;-71
2022/08/18 05:23:20;;;;;;;12.27;7.35;;;;;;;;;;5028416;28;20340;-71
2022/08/18 05:25:45;;;;;;;9.95;6.90;;;;;;;;;;5030724;28;20095;-71
2022/08/18 05:28:12;;;;;;;13.98;6.60;;;;;;;;;;5021672;28;20036;-71
2022/08/18 05:30:37;;;;;;;9.07;6.25;;;;;;;;;;5031543;28;20429;-71
2022/08/18 05:33:03;;;;;;;12.13;6.05;;;;;;;;;;5042965;28;20026;-71
2022/08/18 05:35:32;;;;;;;7.68;5.68;;;;;;;;;;5034682;28;20076;-71
2022/08/18 05:38:14;;;;;;;10.35;5.07;;;;;;;;;;5038110;28;20029;-71
2022/08/18 05:40:39;;;;;;;12.93;4.80;;;;;;;;;;5053748;28;20228;-71
2022/08/18 05:43:05;;;;;;;13.43;5.95;;;;;;;;;;5032270;28;20697;-71
2022/08/18 05:45:33;;;;;;;8.45;6.78;;;;;;;;;;5020488;28;20633;-69
2022/08/18 05:47:59;;;;;;;9.20;6.55;;;;;;;;;;5021219;28;20122;-70
2022/08/18 05:50:25;;;;;;;9.57;6.60;;;;;;;;;;5018580;28;20044;-68
2022/08/18 05:52:53;;;;;;;7.90;6.90;;;;;;;;;;5017857;28;20863;-70
2022/08/18 05:58:16;;;;;;;14.95;5.38;;;;;;;;;;5019305;28;20433;-70
2022/08/18 06:00:47;;;;;;;15.65;5.95;;;;;;;;;;5017690;28;20035;-69
2022/08/18 06:03:15;;;;;;;23.83;6.25;;;;;;;;;;5003857;28;20524;-69
2022/08/18 06:05:51;;;;;;;30.83;6.25;;;;;;;;;;5017699;28;20556;-69
2022/08/18 06:08:17;;;;;;;26.98;6.70;;;;;;;;;;5018907;28;20135;-69
2022/08/18 06:10:46;;;;;;;23.80;5.97;;;;;;;;;;5018841;28;20675;-69
2022/08/18 06:13:11;;;;;;;16.33;5.82;;;;;;;;;;5017791;28;20259;-69
2022/08/18 06:15:39;;;;;;;24.15;5.05;;;;;;;;;;5020491;28;20540;-70
2022/08/18 06:18:26;;;;;;;18.63;4.82;;;;;;;;;;5032820;28;20079;-70
2022/08/18 06:20:58;;;;;;;9.25;2.90;;;;;;;;;;5020129;28;20055;-70
2022/08/18 06:23:26;;;;;;;11.07;2.40;;;;;;;;;;5017438;28;20803;-71
2022/08/18 06:26:12;;;;;;;9.13;2.45;;;;;;;;;;5016030;28;20494;-71
2022/08/18 06:28:56;;;;;;;8.90;2.90;;;;;;;;;;5019791;28;20697;-70
2022/08/18 06:31:21;;;;;;;8.35;3.28;;;;;;;;;;5017861;28;20585;-71
2022/08/18 06:34:08;;;;;;;17.48;3.65;;;;;;;;;;5019083;28;20124;-71
2022/08/18 06:36:48;;;;;;;13.43;3.90;;;;;;;;;;4999968;28;20028;-71
2022/08/18 06:39:28;;;;;;;11.50;4.13;;;;;;;;;;5018671;28;20255;-71
2022/08/18 06:41:53;;;;;;;12.85;4.47;;;;;;;;;;5018482;28;20040;-71
2022/08/18 06:44:18;;;;;;;14.10;4.20;;;;;;;;;;5034630;28;20082;-71
2022/08/18 06:46:55;;;;;;;11.38;4.40;;;;;;;;;;5019050;28;20598;-72
2022/08/18 06:49:39;;;;;;;15.70;4.95;;;;;;;;;;5018404;27;20515;-71
2022/08/18 06:52:17;;;;;;;13.23;5.10;;;;;;;;;;5017416;27;20033;-71
2022/08/18 06:54:42;;;;;;;17.70;4.53;;;;;;;;;;5016965;28;20616;-71
2022/08/18 06:57:20;;;;;;;10.93;3.53;;;;;;;;;;5006029;28;20043;-71
2022/08/18 06:59:53;;;;;;;8.95;2.40;;;;;;;;;;5019686;28;20467;-71
2022/08/18 07:02:24;;;;;;;7.40;2.33;;;;;;;;;;5018473;28;20674;-70
2022/08/18 07:05:00;;;;;;;5.80;2.20;;;;;;;;;;5018617;28;20616;-71
2022/08/18 07:07:30;;;;;;;5.63;2.00;;;;;;;;;;5018576;28;20037;-71
2022/08/18 07:09:56;;;;;;;7.15;2.35;;;;;;;;;;5020385;28;20028;-71
2022/08/18 07:12:23;;;;;;;8.00;2.22;;;;;;;;;;5018965;28;20492;-71
2022/08/18 07:14:50;;;;;;;9.68;3.10;;;;;;;;;;5021108;28;20470;-70
2022/08/18 07:17:42;;;;;;;11.52;2.47;;;;;;;;;;5021749;28;20525;-72
2022/08/18 07:20:16;;;;;;;14.18;2.92;;;;;;;;;;5016460;28;20153;-70
2022/08/18 07:22:51;;;;;;;11.75;2.60;;;;;;;;;;5020969;28;20136;-71
2022/08/18 07:25:23;;;;;;;9.85;3.20;;;;;;;;;;5021715;28;20472;-71
2022/08/18 07:27:48;;;;;;;;;;;;;;;;;;5022132;28;20122;-72
2022/08/18 07:30:26;;;;;;;10.30;2.50;;;;;;;;;;5025576;28;20636;-70
2022/08/18 07:33:03;;;;;;;7.28;2.30;;;;;;;;;;5018324;28;20040;-70
2022/08/18 07:35:38;;;;;;;5.30;2.10;;;;;;;;;;5021329;28;20162;-71
2022/08/18 07:38:07;;;;;;;7.20;2.10;;;;;;;;;;5021190;28;20246;-70
2022/08/18 07:41:02;;;;;;;4.55;2.17;;;;;;;;;;5022167;28;20037;-70
2022/08/18 07:43:34;;;;;;;4.05;1.80;;;;;;;;;;5010654;28;20040;-71
2022/08/18 07:46:12;;;;;;;4.60;2.20;;;;;;;;;;5023759;28;20033;-72
2022/08/18 07:48:38;;;;;;;3.20;1.90;;;;;;;;;;5023870;28;20405;-71
2022/08/18 07:51:13;;;;;;;3.13;1.90;;;;;;;;;;5036707;28;20484;-71
2022/08/18 07:53:58;;;;;;;3.17;2.00;;;;;;;;;;5020828;28;20068;-70
2022/08/18 07:56:55;;;;;;;4.70;1.98;;;;;;;;;;5026377;28;20535;-70
2022/08/18 07:59:37;;;;;;;6.20;1.98;;;;;;;;;;4987946;28;20070;-71
2022/08/18 08:02:02;;;;;;;5.17;1.87;;;;;;;;;;5019608;28;20480;-70
2022/08/18 08:04:37;;;;;;;4.53;1.92;;;;;;;;;;5019172;28;20400;-70
2022/08/18 08:07:11;;;;;;;4.10;1.98;;;;;;;;;;5020912;28;20745;-69
2022/08/18 08:09:45;;;;;;;7.32;2.20;;;;;;;;;;5023240;28;20033;-70
2022/08/18 08:12:30;;;;;;;11.38;2.40;;;;;;;;;;5020505;28;20085;-70
2022/08/18 08:15:03;;;;;;;10.65;2.50;;;;;;;;;;5022661;28;20587;-69
2022/08/18 08:17:38;;;;;;;8.68;2.00;;;;;;;;;;5023454;28;20037;-70
2022/08/18 08:20:07;;;;;;;8.40;2.25;;;;;;;;;;5020058;28;20107;-70
2022/08/18 08:22:35;;;;;;;9.73;2.10;;;;;;;;;;5020897;28;20122;-70
2022/08/18 08:25:07;;;;;;;11.02;2.40;;;;;;;;;;5024920;28;20849;-70
2022/08/18 08:27:33;;;;;;;12.43;2.40;;;;;;;;;;5035870;28;20622;-70
2022/08/18 08:30:05;;;;;;;11.60;2.38;;;;;;;;;;5020307;28;20037;-69
2022/08/18 08:32:35;;;;;;;6.78;2.00;;;;;;;;;;5018593;28;20955;-72
2022/08/18 08:35:00;;;;;;;8.27;2.10;;;;;;;;;;5008079;28;20048;-72
2022/08/18 08:37:34;;;;;;;11.43;2.65;;;;;;;;;;5022109;28;20041;-72
2022/08/18 08:40:01;;;;;;;14.75;2.70;;;;;;;;;;5021558;28;20057;-71
2022/08/18 08:42:59;;;;;;;10.80;2.50;;;;;;;;;;5024529;28;20083;-70
2022/08/18 08:45:27;;;;;;;10.52;3.00;;;;;;;;;;5001533;28;20631;-72
2022/08/18 08:47:58;;;;;;;8.80;2.67;;;;;;;;;;5022568;28;20036;-71
2022/08/18 08:50:25;;;;;;;13.57;3.38;;;;;;;;;;5040934;28;20123;-71
2022/08/18 08:52:57;;;;;;;9.02;2.42;;;;;;;;;;5027314;28;20037;-71
2022/08/18 08:55:45;;;;;;;12.55;3.35;;;;;;;;;;5025466;28;20166;-72
2022/08/18 08:58:30;;;;;;;16.55;3.38;;;;;;;;;;5024219;28;20032;-71
2022/08/18 09:00:56;;;;;;;12.30;3.03;;;;;;;;;;5028477;28;20043;-72
2022/08/18 09:03:24;;;;;;;11.27;3.55;;;;;;;;;;5024800;28;20052;-72
2022/08/18 09:05:58;;;;;;;12.73;3.30;;;;;;;;;;5024759;28;20045;-71
2022/08/18 09:08:27;;;;;;;12.48;3.47;;;;;;;;;;5022939;28;20039;-71
2022/08/18 09:11:11;;;;;;;17.48;3.70;;;;;;;;;;5021443;28;20075;-72
2022/08/18 09:13:52;;;;;;;16.40;3.55;;;;;;;;;;5037752;28;20036;-71
2022/08/18 09:16:26;;;;;;;12.77;3.60;;;;;;;;;;5027594;28;20599;-71
2022/08/18 09:19:19;;;;;;;8.50;3.15;;;;;;;;;;5005377;28;20262;-69
2022/08/18 09:22:05;;;;;;;14.63;3.40;;;;;;;;;;5025206;28;20032;-72
2022/08/18 09:24:38;;;;;;;11.07;3.35;;;;;;;;;;5018478;28;20071;-69
2022/08/18 09:27:12;;;;;;;9.52;3.03;;;;;;;;;;5020058;28;20262;-69
2022/08/18 09:29:37;;;;;;;18.00;4.20;;;;;;;;;;5023883;28;20041;-72
2022/08/18 09:32:18;;;;;;;13.15;3.33;;;;;;;;;;5021545;28;20041;-71
2022/08/18 09:35:02;;;;;;;10.77;3.50;;;;;;;;;;5024653;28;20052;-71
2022/08/18 09:37:39;;;;;;;9.05;3.15;;;;;;;;;;5028867;28;20044;-71
2022/08/18 09:43:33;;;;;;;12.93;3.30;;;;;;;;;;5029253;28;20060;-72
2022/08/18 09:46:03;;;;;;;18.23;3.17;;;;;;;;;;5008583;28;20089;-71
2022/08/18 09:48:31;;;;;;;11.70;3.13;;;;;;;;;;5023949;28;20762;-71
2022/08/18 09:50:57;;;;;;;16.20;3.53;;;;;;;;;;5029036;28;20497;-72
2022/08/18 09:53:41;;;;;;;9.45;3.30;;;;;;;;;;5023905;28;21874;-71
2022/08/18 09:56:06;;;;;;;10.43;3.13;;;;;;;;;;5022335;28;20049;-71
2022/08/18 09:59:04;;;;;;;9.77;2.88;;;;;;;;;;5024103;28;20216;-71
2022/08/18 10:01:33;;;;;;;14.68;3.72;;;;;;;;;;4990076;28;20101;-72
2022/08/18 10:04:13;;;;;;;10.70;3.30;;;;;;;;;;5017107;28;20464;-69
2022/08/18 10:06:42;;;;;;;8.48;2.40;;;;;;;;;;5019398;28;20036;-72
2022/08/18 10:09:24;;;;;;;9.90;2.65;;;;;;;;;;5019284;28;20036;-72
2022/08/18 10:11:58;;;;;;;14.35;3.15;;;;;;;;;;5020883;28;20253;-72
2022/08/18 10:14:29;;;;;;;9.98;2.40;;;;;;;;;;5020049;28;20152;-73
2022/08/18 10:17:10;;;;;;;9.38;2.50;;;;;;;;;;5020343;28;20051;-72
2022/08/18 10:19:36;;;;;;;8.32;2.85;;;;;;;;;;5018212;28;20032;-73
2022/08/18 10:22:03;;;;;;;9.85;2.45;;;;;;;;;;5035337;28;21154;-69
2022/08/18 10:24:33;;;;;;;12.77;2.70;;;;;;;;;;5017983;28;21903;-69
2022/08/18 10:27:01;;;;;;;10.68;2.72;;;;;;;;;;5017707;28;20040;-73
2022/08/18 10:29:26;;;;;;;8.90;2.63;;;;;;;;;;5020259;28;20285;-74
2022/08/18 10:31:55;;;;;;;11.95;2.55;;;;;;;;;;5024866;28;20040;-73
2022/08/18 10:34:41;;;;;;;7.85;2.33;;;;;;;;;;5036532;28;20051;-72
2022/08/18 10:37:18;;;;;;;9.75;2.38;;;;;;;;;;5015306;28;21080;-73
2022/08/18 10:39:45;;;;;;;7.70;2.10;;;;;;;;;;5019184;28;20361;-73
2022/08/18 10:42:21;;;;;;;8.75;2.30;;;;;;;;;;5023730;28;20206;-72
2022/08/18 10:44:49;;;;;;;9.50;2.20;;;;;;;;;;5023127;28;20510;-73
2022/08/18 10:47:22;;;;;;;8.52;2.42;;;;;;;;;;5024447;28;20513;-72
2022/08/18 10:49:49;;;;;;;7.07;2.00;;;;;;;;;;5022595;28;20036;-73
2022/08/18 10:52:17;;;;;;;12.68;2.05;;;;;;;;;;5024299;28;20276;-73
2022/08/18 10:55:03;;;;;;;6.95;1.98;;;;;;;;;;5023006;28;20056;-74
2022/08/18 10:57:47;;;;;;;6.47;1.80;;;;;;;;;;5021747;28;20047;-76
2022/08/18 11:00:16;;;;;;;10.18;2.30;;;;;;;;;;5023594;28;20525;-73
2022/08/18 11:02:51;;;;;;;9.50;1.90;;;;;;;;;;5019883;28;20048;-69
2022/08/18 11:05:19;;;;;;;6.10;1.85;;;;;;;;;;5019250;28;20040;-68
2022/08/18 11:07:48;;;;;;;4.63;1.83;;;;;;;;;;5019073;28;20446;-68
2022/08/18 11:10:33;;;;;;;7.53;2.17;;;;;;;;;;5023525;28;20866;-68
2022/08/18 11:13:01;;;;;;;7.10;1.88;;;;;;;;;;5019098;28;20400;-68
2022/08/18 11:15:34;;;;;;;4.28;1.75;;;;;;;;;;5020016;28;20683;-68
2022/08/18 11:18:18;;;;;;;5.75;1.80;;;;;;;;;;5017628;28;20217;-68
2022/08/18 11:20:44;;;;;;;7.07;2.03;;;;;;;;;;5015216;28;20119;-67
2022/08/18 11:23:14;;;;;;;5.43;1.80;;;;;;;;;;5014945;28;20067;-67
2022/08/18 11:25:40;;;;;;;8.05;2.08;;;;;;;;;;5018007;28;20496;-68
2022/08/18 11:28:19;;;;;;;6.47;2.00;;;;;;;;;;5023990;28;20088;-75
2022/08/18 11:30:46;;;;;;;14.45;2.63;;;;;;;;;;5021854;28;20033;-72
2022/08/18 11:33:18;;;;;;;8.85;2.40;;;;;;;;;;5018405;28;20033;-68
2022/08/18 11:36:02;;;;;;;9.98;2.50;;;;;;;;;;5022445;28;20044;-72
2022/08/18 11:38:27;;;;;;;9.48;2.50;;;;;;;;;;5025115;28;20753;-71
2022/08/18 11:41:08;;;;;;;6.25;2.30;;;;;;;;;;5018899;28;20363;-72
2022/08/18 11:43:34;;;;;;;8.68;2.03;;;;;;;;;;5033062;28;20181;-67
2022/08/18 11:46:09;;;;;;;8.50;2.40;;;;;;;;;;5019919;28;20532;-67
2022/08/18 11:48:37;;;;;;;10.20;2.50;;;;;;;;;;5018720;28;20220;-72
2022/08/18 11:51:18;;;;;;;9.77;2.42;;;;;;;;;;5021226;28;20151;-70
2022/08/18 11:53:46;;;;;;;6.07;2.17;;;;;;;;;;5019502;28;20044;-72
2022/08/18 11:56:30;;;;;;;11.20;2.40;;;;;;;;;;5033642;28;20044;-67
2022/08/18 11:58:57;;;;;;;7.22;2.38;;;;;;;;;;5016723;28;20032;-75
2022/08/18 12:01:31;;;;;;;5.13;2.10;;;;;;;;;;5020280;28;20209;-67
2022/08/18 12:04:16;;;;;;;6.75;2.22;;;;;;;;;;5022089;28;20371;-74
2022/08/18 12:06:48;;;;;;;7.70;2.10;;;;;;;;;;5021031;28;20204;-72
2022/08/18 12:09:19;;;;;;;6.65;2.00;;;;;;;;;;5018223;28;20028;-68
2022/08/18 12:12:11;;;;;;;9.98;2.25;;;;;;;;;;5019991;27;20036;-67
2022/08/18 12:14:50;;;;;;;6.68;2.42;;;;;;;;;;5018738;27;20040;-68
2022/08/18 12:17:16;;;;;;;6.47;2.00;;;;;;;;;;5020881;28;20548;-68
2022/08/18 12:19:42;;;;;;;6.03;1.90;;;;;;;;;;5020623;27;20040;-67
2022/08/18 12:22:18;;;;;;;8.32;2.00;;;;;;;;;;5007122;28;20612;-68
2022/08/18 12:24:45;;;;;;;10.70;2.10;;;;;;;;;;5002246;28;20041;-67
2022/08/18 12:27:11;;;;;;;7.18;1.77;;;;;;;;;;5000527;28;20036;-68
2022/08/18 12:29:37;;;;;;;5.13;2.13;;;;;;;;;;4999760;28;20032;-66
2022/08/18 12:32:03;;;;;;;8.15;1.92;;;;;;;;;;5001439;28;20076;-67
2022/08/18 12:34:28;;;;;;;5.43;2.00;;;;;;;;;;4999619;28;20254;-67
2022/08/18 12:36:55;;;;;;;6.55;2.00;;;;;;;;;;5017963;28;20211;-71
2022/08/18 12:39:20;;;;;;;7.45;2.53;;;;;;;;;;5002492;28;20067;-66
2022/08/18 12:41:46;;;;;;;5.55;1.73;;;;;;;;;;4999921;28;20097;-67
2022/08/18 12:44:11;;;;;;;10.32;2.30;;;;;;;;;;5001003;28;20041;-67
2022/08/18 12:46:36;;;;;;;8.80;2.22;;;;;;;;;;5000988;28;20558;-72
2022/08/18 12:49:03;;;;;;;6.32;2.35;;;;;;;;;;5001500;28;20422;-73
2022/08/18 12:51:28;;;;;;;9.07;1.80;;;;;;;;;;5003255;28;20037;-66
2022/08/18 12:53:54;;;;;;;9.45;1.85;;;;;;;;;;5030267;28;20041;-67
2022/08/18 12:56:29;;;;;;;10.18;2.28;;;;;;;;;;5013049;28;20506;-67
2022/08/18 12:58:54;;;;;;;10.18;1.92;;;;;;;;;;4998022;28;20130;-66
2022/08/18 13:01:20;;;;;;;7.05;2.40;;;;;;;;;;4995778;28;20037;-66
2022/08/18 13:03:46;;;;;;;4.90;1.80;;;;;;;;;;4997639;28;20212;-66
2022/08/18 13:06:14;;;;;;;5.75;2.03;;;;;;;;;;5028365;28;20032;-66
2022/08/18 13:08:40;;;;;;;10.00;2.45;;;;;;;;;;5001994;28;20259;-70
2022/08/18 13:11:09;;;;;;;8.13;2.10;;;;;;;;;;5005268;28;20429;-71
2022/08/18 13:13:36;;;;;;;5.50;1.90;;;;;;;;;;5028309;28;20032;-72
2022/08/18 13:16:01;;;;;;;6.85;1.77;;;;;;;;;;5024228;28;20269;-72
2022/08/18 13:18:27;;;;;;;7.28;2.08;;;;;;;;;;5023609;28;20758;-66
2022/08/18 13:20:53;;;;;;;7.95;1.85;;;;;;;;;;5016883;28;20036;-66
2022/08/18 13:23:18;;;;;;;8.65;2.25;;;;;;;;;;5018555;28;20072;-66
2022/08/18 13:25:43;;;;;;;9.10;2.33;;;;;;;;;;5034053;28;20669;-66
2022/08/18 13:28:09;;;;;;;8.45;2.38;;;;;;;;;;5033651;28;20181;-67
2022/08/18 13:30:34;;;;;;;6.95;2.00;;;;;;;;;;5006159;28;20033;-66
2022/08/18 13:33:00;;;;;;;9.98;2.17;;;;;;;;;;5018333;28;20554;-70
2022/08/18 13:35:26;;;;;;;8.18;2.10;;;;;;;;;;5018928;28;20140;-73
2022/08/18 13:37:53;;;;;;;7.32;1.95;;;;;;;;;;5019849;28;20123;-69
2022/08/18 13:40:18;;;;;;;7.10;2.42;;;;;;;;;;5019701;28;20200;-71
2022/08/18 13:42:47;;;;;;;7.18;2.22;;;;;;;;;;5019787;28;20456;-72
2022/08/18 13:45:19;;;;;;;9.98;2.42;;;;;;;;;;5022029;28;20047;-71
2022/08/18 13:47:46;;;;;;;8.40;2.13;;;;;;;;;;5018682;28;20032;-73
2022/08/18 13:50:11;;;;;;;8.63;2.20;;;;;;;;;;5020322;28;20036;-71
2022/08/18 13:52:37;;;;;;;8.63;2.42;;;;;;;;;;5017596;28;20033;-72
2022/08/18 13:55:04;;;;;;;7.25;2.03;;;;;;;;;;5020083;28;20461;-71
2022/08/18 13:57:30;;;;;;;7.03;2.10;;;;;;;;;;5021683;28;20036;-70
2022/08/18 13:59:56;;;;;;;9.82;2.13;;;;;;;;;;5022833;28;20082;-71
2022/08/18 14:02:21;;;;;;;7.13;2.33;;;;;;;;;;5019485;28;20288;-73
2022/08/18 14:04:48;;;;;;;7.85;2.03;;;;;;;;;;5024421;28;20570;-70
2022/08/18 14:07:13;;;;;;;10.55;2.33;;;;;;;;;;5037244;28;20558;-71
2022/08/18 14:09:39;;;;;;;7.40;1.98;;;;;;;;;;5021347;28;20048;-71
2022/08/18 14:12:06;;;;;;;10.05;1.88;;;;;;;;;;5019578;28;20072;-71
2022/08/18 14:14:32;;;;;;;7.00;2.08;;;;;;;;;;5018690;28;20053;-71
2022/08/18 14:16:57;;;;;;;7.82;1.92;;;;;;;;;;5020243;28;20152;-74
2022/08/18 14:27:36;;;;;;;6.10;1.83;;;;;;;;;;5017687;28;20045;-71
2022/08/18 14:30:03;;;;;;;7.80;2.00;;;;;;;;;;5019225;28;20420;-72
2022/08/18 14:32:28;;;;;;;9.32;2.00;;;;;;;;;;5018284;28;20044;-71
2022/08/18 14:34:59;;;;;;;6.50;1.70;;;;;;;;;;5007222;28;20071;-71
2022/08/18 14:37:24;;;;;;;8.10;1.85;;;;;;;;;;5036593;28;20043;-71
2022/08/18 14:39:50;;;;;;;7.22;1.92;;;;;;;;;;5022783;28;20031;-72
2022/08/18 14:42:17;;;;;;;5.47;1.70;;;;;;;;;;5018976;28;20028;-66
2022/08/18 14:44:43;;;;;;;5.30;1.92;;;;;;;;;;5018297;28;20037;-66
2022/08/18 14:47:09;;;;;;;10.30;2.10;;;;;;;;;;5016143;28;20512;-73
2022/08/18 14:49:35;;;;;;;8.27;2.15;;;;;;;;;;5035630;28;20029;-72
2022/08/18 14:52:01;;;;;;;8.38;1.88;;;;;;;;;;5019618;28;20051;-71
2022/08/18 14:54:27;;;;;;;6.35;1.67;;;;;;;;;;5021505;28;20048;-71
2022/08/18 14:56:52;;;;;;;6.63;2.00;;;;;;;;;;5023819;28;20037;-73
2022/08/18 14:59:18;;;;;;;8.10;2.40;;;;;;;;;;5027272;28;20043;-72
2022/08/18 15:01:46;;;;;;;5.10;1.67;;;;;;;;;;5024753;28;20109;-71
2022/08/18 15:04:13;;;;;;;5.38;1.90;;;;;;;;;;5016718;28;21105;-73
2022/08/18 15:06:39;;;;;;;6.93;2.13;;;;;;;;;;5019675;28;20204;-73
2022/08/18 15:09:04;;;;;;;6.03;1.85;;;;;;;;;;5020334;28;20059;-71
2022/08/18 15:11:29;;;;;;;6.18;1.90;;;;;;;;;;5016527;28;20059;-71